createdAt,value
2022-08-05T00:00:16.452Z,99.90
2022-08-05T00:03:04.052Z,99.90
2022-08-05T00:06:05.771Z,99.90
2022-08-05T00:08:34.569Z,99.90
2022-08-05T00:11:20.224Z,99.90
2022-08-05T00:13:53.159Z,99.90
2022-08-05T00:16:36.254Z,99.90
2022-08-05T00:19:08.039Z,99.90
2022-08-05T00:21:35.711Z,99.90
2022-08-05T00:24:10.546Z,99.90
2022-08-05T00:26:38.942Z,99.90
2022-08-05T00:29:13.821Z,99.90
2022-08-05T00:31:53.590Z,99.90
2022-08-05T00:34:53.546Z,99.90
2022-08-05T00:37:15.438Z,99.90
2022-08-05T00:39:57.509Z,99.90
2022-08-05T00:42:37.566Z,99.90
2022-08-05T00:45:08.672Z,99.90
2022-08-05T00:47:57.150Z,99.90
2022-08-05T00:50:25.299Z,99.90
2022-08-05T00:52:55.177Z,99.90
2022-08-05T00:55:34.015Z,99.90
2022-08-05T00:58:11.366Z,99.90
2022-08-05T01:00:39.642Z,99.90
2022-08-05T01:03:07.827Z,99.90
2022-08-05T01:05:35.467Z,1.00
2022-08-05T01:08:39.879Z,1.00
2022-08-05T01:11:13.904Z,1.00
2022-08-05T01:14:15.634Z,1.00
2022-08-05T01:16:57.014Z,1.00
2022-08-05T01:19:56.116Z,1.00
2022-08-05T01:22:57.432Z,1.00
2022-08-05T01:25:53.251Z,1.00
2022-08-05T01:28:37.837Z,1.00
2022-08-05T01:31:23.005Z,1.00
2022-08-05T01:33:57.197Z,1.00
2022-08-05T01:36:36.163Z,2.20
2022-08-05T01:39:11.925Z,7.80
2022-08-05T01:41:44.352Z,12.60
2022-08-05T01:44:13.886Z,12.30
2022-08-05T01:46:46.197Z,9.90
2022-08-05T01:49:25.074Z,10.60
2022-08-05T01:52:01.419Z,25.30
2022-08-05T01:54:46.192Z,36.80
2022-08-05T01:58:11.072Z,32.50
2022-08-05T02:00:11.697Z,43.50
2022-08-05T02:02:54.283Z,38.10
2022-08-05T02:05:30.978Z,55.50
2022-08-05T02:08:02.035Z,54.90
2022-08-05T02:10:36.575Z,45.70
2022-08-05T02:13:16.186Z,63.40
2022-08-05T02:15:47.525Z,72.80
2022-08-05T02:18:31.515Z,75.40
2022-08-05T02:21:15.648Z,97.90
2022-08-05T02:23:46.293Z,99.90
2022-08-05T02:26:15.640Z,99.90
2022-08-05T02:28:46.385Z,99.90
2022-08-05T02:31:23.047Z,99.90
2022-08-05T02:34:02.246Z,99.90
2022-08-05T02:36:32.607Z,99.90
2022-08-05T02:39:04.164Z,99.90
2022-08-05T02:41:57.734Z,99.90
2022-08-05T02:44:30.039Z,99.90
2022-08-05T02:47:00.737Z,99.90
2022-08-05T02:49:41.661Z,99.90
2022-08-05T02:52:29.639Z,99.90
2022-08-05T02:55:05.489Z,99.90
2022-08-05T02:58:10.384Z,99.90
2022-08-05T03:00:22.977Z,99.90
2022-08-05T03:02:53.657Z,1.00
2022-08-05T03:06:54.726Z,1.00
2022-08-05T03:08:11.434Z,1.00
2022-08-05T03:10:38.987Z,50.50
2022-08-05T03:13:17.125Z,77.50
2022-08-05T03:15:45.695Z,99.90
2022-08-05T03:18:17.328Z,1.00
2022-08-05T03:20:48.867Z,96.30
2022-08-05T03:23:19.093Z,68.80
2022-08-05T03:26:05.084Z,29.10
2022-08-05T03:28:38.980Z,4.00
2022-08-05T03:31:06.765Z,41.30
2022-08-05T03:33:51.293Z,32.00
2022-08-05T03:36:30.060Z,1.00
2022-08-05T03:38:58.239Z,1.00
2022-08-05T03:41:25.671Z,1.00
2022-08-05T03:44:09.731Z,1.00
2022-08-05T03:46:39.037Z,1.00
2022-08-05T03:49:06.667Z,99.90
2022-08-05T03:52:39.017Z,1.00
2022-08-05T03:55:51.689Z,99.90
2022-08-05T03:57:44.748Z,99.90
2022-08-05T04:00:15.542Z,97.80
2022-08-05T04:02:58.629Z,99.90
2022-08-05T04:05:33.806Z,99.90
2022-08-05T04:08:30.180Z,99.90
2022-08-05T04:10:58.699Z,99.90
2022-08-05T04:13:27.821Z,99.90
2022-08-05T04:16:14.966Z,99.90
2022-08-05T04:18:44.810Z,99.90
2022-08-05T04:22:05.805Z,99.90
2022-08-05T04:24:06.642Z,99.90
2022-08-05T04:26:36.127Z,99.90
2022-08-05T04:29:07.445Z,99.90
2022-08-05T04:31:39.413Z,99.90
2022-08-05T04:34:31.282Z,99.90
2022-08-05T04:36:53.904Z,99.90
2022-08-05T04:39:21.848Z,99.90
2022-08-05T04:41:51.211Z,99.90
2022-08-05T04:44:21.216Z,99.90
2022-08-05T04:46:58.490Z,99.90
2022-08-05T04:49:39.183Z,99.90
2022-08-05T04:52:15.970Z,99.90
2022-08-05T04:54:43.029Z,99.90
2022-08-05T04:57:10.088Z,99.90
2022-08-05T04:59:40.478Z,99.90
2022-08-05T05:02:36.541Z,99.90
2022-08-05T05:05:01.825Z,99.90
2022-08-05T05:07:32.277Z,99.90
2022-08-05T05:10:04.444Z,99.90
2022-08-05T05:12:32.288Z,99.90
2022-08-05T05:14:59.463Z,99.90
2022-08-05T05:17:55.663Z,99.90
2022-08-05T05:20:23.296Z,99.90
2022-08-05T05:23:02.139Z,99.90
2022-08-05T05:25:40.795Z,99.90
2022-08-05T05:28:09.814Z,99.90
2022-08-05T05:30:37.900Z,99.90
2022-08-05T05:33:16.039Z,99.90
2022-08-05T05:35:45.721Z,99.90
2022-08-05T05:38:14.271Z,99.90
2022-08-05T05:40:49.954Z,99.90
2022-08-05T05:43:22.383Z,99.90
2022-08-05T05:46:17.675Z,99.90
2022-08-05T05:48:48.346Z,99.90
2022-08-05T05:51:23.215Z,99.90
2022-08-05T05:53:57.428Z,99.90
2022-08-05T05:56:32.347Z,99.90
2022-08-05T05:59:06.038Z,99.90
2022-08-05T06:01:39.662Z,99.90
2022-08-05T06:04:08.333Z,99.90
2022-08-05T06:06:42.029Z,99.90
2022-08-05T06:09:16.990Z,99.90
2022-08-05T06:12:01.442Z,99.90
2022-08-05T06:14:31.066Z,99.90
2022-08-05T06:16:59.160Z,99.90
2022-08-05T06:19:34.059Z,99.90
2022-08-05T06:22:07.411Z,99.90
2022-08-05T06:24:42.289Z,99.90
2022-08-05T06:28:09.521Z,99.90
2022-08-05T06:30:16.838Z,99.90
2022-08-05T06:32:47.532Z,99.90
2022-08-05T06:35:15.536Z,99.90
2022-08-05T06:38:08.255Z,99.90
2022-08-05T06:40:37.304Z,99.90
2022-08-05T06:43:58.515Z,99.90
2022-08-05T06:46:06.846Z,99.90
2022-08-05T06:48:53.390Z,99.90
2022-08-05T06:51:29.966Z,99.90
2022-08-05T06:54:03.997Z,99.90
2022-08-05T06:56:34.303Z,99.90
2022-08-05T06:59:09.373Z,99.90
2022-08-05T07:01:37.305Z,99.90
2022-08-05T07:04:08.435Z,99.90
2022-08-05T07:06:35.765Z,99.90
2022-08-05T07:09:06.227Z,99.90
2022-08-05T07:11:37.429Z,99.90
2022-08-05T07:14:32.172Z,99.90
2022-08-05T07:18:02.278Z,99.90
2022-08-05T07:22:39.878Z,99.90
2022-08-05T07:25:23.091Z,99.90
2022-08-05T07:28:03.818Z,99.90
2022-08-05T07:30:39.049Z,99.90
2022-08-05T07:33:15.670Z,99.90
2022-08-05T07:36:03.318Z,99.90
2022-08-05T07:38:35.679Z,99.90
2022-08-05T07:42:06.798Z,99.90
2022-08-05T07:44:18.365Z,99.90
2022-08-05T07:46:48.598Z,99.90
2022-08-05T07:49:18.705Z,99.90
2022-08-05T07:51:53.405Z,99.90
2022-08-05T07:54:31.112Z,99.90
2022-08-05T07:57:22.566Z,99.90
2022-08-05T07:59:52.006Z,99.90
2022-08-05T08:02:30.868Z,99.90
2022-08-05T08:05:15.940Z,99.90
2022-08-05T08:08:00.146Z,99.90
2022-08-05T08:10:28.961Z,99.90
2022-08-05T08:12:58.513Z,99.90
2022-08-05T08:15:37.413Z,99.90
2022-08-05T08:18:14.226Z,99.90
2022-08-05T08:20:59.778Z,99.90
2022-08-05T08:24:01.409Z,99.90
2022-08-05T08:26:16.399Z,99.90
2022-08-05T08:28:59.874Z,99.90
2022-08-05T08:31:36.930Z,99.90
2022-08-05T08:34:08.734Z,99.90
2022-08-05T08:36:49.038Z,99.90
2022-08-05T08:39:23.576Z,99.90
2022-08-05T08:41:59.594Z,99.90
2022-08-05T08:45:18.094Z,99.90
2022-08-05T08:48:05.564Z,99.90
2022-08-05T08:50:33.032Z,99.90
2022-08-05T08:53:08.183Z,99.90
2022-08-05T08:56:04.965Z,99.90
2022-08-05T08:58:43.455Z,99.90
2022-08-05T09:01:17.068Z,99.90
2022-08-05T09:03:57.314Z,99.90
2022-08-05T09:06:29.902Z,99.90
2022-08-05T09:09:02.150Z,99.90
2022-08-05T09:11:52.075Z,99.90
2022-08-05T09:14:59.128Z,99.90
2022-08-05T09:17:40.147Z,99.90
2022-08-05T09:20:02.598Z,99.90
2022-08-05T09:23:05.063Z,99.90
2022-08-05T09:26:01.457Z,99.90
2022-08-05T09:28:24.337Z,99.90
2022-08-05T09:31:18.321Z,99.90
2022-08-05T09:33:59.322Z,99.90
2022-08-05T09:36:55.989Z,99.90
2022-08-05T09:39:44.885Z,99.90
2022-08-05T09:42:24.084Z,99.90
2022-08-05T09:44:57.413Z,99.90
2022-08-05T09:47:36.308Z,99.90
2022-08-05T09:50:38.218Z,99.90
2022-08-05T09:53:08.875Z,99.90
2022-08-05T09:55:57.214Z,99.90
2022-08-05T09:58:28.996Z,99.90
2022-08-05T10:00:59.425Z,99.90
2022-08-05T10:03:56.599Z,99.90
2022-08-05T10:06:19.983Z,99.90
2022-08-05T10:08:50.412Z,99.90
2022-08-05T10:11:21.901Z,99.90
2022-08-05T10:13:54.590Z,99.90
2022-08-05T10:16:41.578Z,99.90
2022-08-05T10:19:23.560Z,99.90
2022-08-05T10:21:59.631Z,99.90
2022-08-05T10:24:27.838Z,99.90
2022-08-05T10:26:56.767Z,99.90
2022-08-05T10:30:41.464Z,99.90
2022-08-05T10:32:53.603Z,99.90
2022-08-05T10:35:07.211Z,99.90
2022-08-05T10:37:40.233Z,99.90
2022-08-05T10:40:39.128Z,99.90
2022-08-05T10:43:43.172Z,99.90
2022-08-05T10:46:13.494Z,99.90
2022-08-05T10:48:56.501Z,99.90
2022-08-05T10:51:28.443Z,99.90
2022-08-05T10:54:05.950Z,99.90
2022-08-05T10:56:57.778Z,99.90
2022-08-05T11:00:02.261Z,99.90
2022-08-05T11:02:38.070Z,99.90
2022-08-05T11:05:10.245Z,99.90
2022-08-05T11:08:03.147Z,99.90
2022-08-05T11:10:38.338Z,99.90
2022-08-05T11:13:39.908Z,99.90
2022-08-05T11:16:47.878Z,99.90
2022-08-05T11:20:10.082Z,99.90
2022-08-05T11:22:49.971Z,99.90
2022-08-05T11:26:06.278Z,99.90
2022-08-05T11:28:16.923Z,99.90
2022-08-05T11:30:58.537Z,99.90
2022-08-05T11:33:48.592Z,99.90
2022-08-05T11:36:34.237Z,99.90
2022-08-05T11:39:07.275Z,99.90
2022-08-05T11:42:01.546Z,99.90
2022-08-05T11:44:40.560Z,99.90
2022-08-05T11:47:15.085Z,99.90
2022-08-05T11:49:50.932Z,99.90
2022-08-05T11:52:29.545Z,99.90
2022-08-05T11:54:59.192Z,99.90
2022-08-05T11:57:39.556Z,99.90
2022-08-05T12:00:32.062Z,99.90
2022-08-05T12:03:28.655Z,99.90
2022-08-05T12:06:06.464Z,99.90
2022-08-05T12:08:49.949Z,99.90
2022-08-05T12:11:20.447Z,99.90
2022-08-05T12:14:04.323Z,99.90
2022-08-05T12:16:45.627Z,99.90
2022-08-05T12:20:17.273Z,99.90
2022-08-05T12:22:06.159Z,99.90
2022-08-05T12:24:49.731Z,99.90
2022-08-05T12:27:25.305Z,99.90
2022-08-05T12:30:15.614Z,99.90
2022-08-05T12:32:51.141Z,99.90
2022-08-05T12:35:21.740Z,99.90
2022-08-05T12:37:49.475Z,99.90
2022-08-05T12:40:28.740Z,99.90
2022-08-05T12:42:57.076Z,99.90
2022-08-05T12:45:48.350Z,99.90
2022-08-05T12:48:26.984Z,99.90
2022-08-05T12:52:10.224Z,99.90
2022-08-05T12:54:04.020Z,99.90
2022-08-05T12:56:35.430Z,99.90
2022-08-05T13:00:08.723Z,99.90
2022-08-05T13:02:27.441Z,99.90
2022-08-05T13:04:57.903Z,99.90
2022-08-05T13:07:57.518Z,99.90
2022-08-05T13:10:19.851Z,99.90
2022-08-05T13:12:50.963Z,99.90
2022-08-05T13:15:41.259Z,99.90
2022-08-05T13:18:19.792Z,99.90
2022-08-05T13:20:49.893Z,99.90
2022-08-05T13:23:22.763Z,99.90
2022-08-05T13:25:59.007Z,99.90
2022-08-05T13:28:28.009Z,99.90
2022-08-05T13:30:57.216Z,99.90
2022-08-05T13:34:21.797Z,99.90
2022-08-05T13:36:14.581Z,99.90
2022-08-05T13:38:43.059Z,99.90
2022-08-05T13:41:11.698Z,99.90
2022-08-05T13:43:44.247Z,99.90
2022-08-05T13:46:43.808Z,99.90
2022-08-05T13:49:13.611Z,99.90
2022-08-05T13:51:46.166Z,99.90
2022-08-05T13:54:16.307Z,99.90
2022-08-05T13:56:51.695Z,99.90
2022-08-05T13:59:25.069Z,99.90
2022-08-05T14:02:00.113Z,99.90
2022-08-05T14:04:54.811Z,99.90
2022-08-05T14:07:26.187Z,99.90
2022-08-05T14:10:19.245Z,99.90
2022-08-05T14:12:55.472Z,99.90
2022-08-05T14:16:05.605Z,99.90
2022-08-05T14:18:17.680Z,99.90
2022-08-05T14:20:48.453Z,99.90
2022-08-05T14:23:23.822Z,99.90
2022-08-05T14:25:58.454Z,99.90
2022-08-05T14:28:28.687Z,99.90
2022-08-05T14:31:00.854Z,99.90
2022-08-05T14:33:56.362Z,99.90
2022-08-05T14:36:21.456Z,99.90
2022-08-05T14:38:49.954Z,99.90
2022-08-05T14:41:18.709Z,99.90
2022-08-05T14:43:59.695Z,99.90
2022-08-05T14:46:31.003Z,99.90
2022-08-05T14:49:06.225Z,99.90
2022-08-05T14:51:42.443Z,99.90
2022-08-05T14:54:28.268Z,99.90
2022-08-05T14:56:58.597Z,99.90
2022-08-05T14:59:29.678Z,99.90
2022-08-05T15:02:03.625Z,99.90
2022-08-05T15:04:43.398Z,99.90
2022-08-05T15:08:04.605Z,99.90
2022-08-05T15:10:01.222Z,99.90
2022-08-05T15:12:40.895Z,99.90
2022-08-05T15:15:16.768Z,99.90
2022-08-05T15:18:05.611Z,99.90
2022-08-05T15:20:33.553Z,99.90
2022-08-05T15:23:08.906Z,99.90
2022-08-05T15:25:52.007Z,99.90
2022-08-05T15:28:26.963Z,99.90
2022-08-05T15:30:55.605Z,99.90
2022-08-05T15:34:19.134Z,99.90
2022-08-05T15:36:17.699Z,99.90
2022-08-05T15:41:00.837Z,99.90
2022-08-05T15:41:56.143Z,99.90
2022-08-05T15:44:27.488Z,99.90
2022-08-05T15:46:55.772Z,99.90
2022-08-05T15:49:52.064Z,99.90
2022-08-05T15:52:29.406Z,99.90
2022-08-05T15:54:57.665Z,99.90
2022-08-05T15:57:33.079Z,99.90
2022-08-05T16:00:03.962Z,99.90
2022-08-05T16:02:32.616Z,99.90
2022-08-05T16:05:00.147Z,99.90
2022-08-05T16:07:29.491Z,99.90
2022-08-05T16:09:57.261Z,99.90
2022-08-05T16:12:24.841Z,99.90
2022-08-05T16:14:52.234Z,99.90
2022-08-05T16:17:19.577Z,99.90
2022-08-05T16:20:02.897Z,99.90
2022-08-05T16:22:34.017Z,99.90
2022-08-05T16:25:08.058Z,99.90
2022-08-05T16:28:00.850Z,99.90
2022-08-05T16:30:28.819Z,99.90
2022-08-05T16:32:57.922Z,99.90
2022-08-05T16:35:30.645Z,99.90
2022-08-05T16:38:02.977Z,99.90
2022-08-05T16:40:48.102Z,99.90
2022-08-05T16:43:25.047Z,99.90
2022-08-05T16:46:04.152Z,99.90
2022-08-05T16:48:37.837Z,99.90
2022-08-05T16:51:09.194Z,99.90
2022-08-05T16:54:05.211Z,99.90
2022-08-05T16:56:27.822Z,99.90
2022-08-05T16:58:55.612Z,99.90
2022-08-05T17:01:24.221Z,99.90
2022-08-05T17:03:52.204Z,99.90
2022-08-05T17:06:20.593Z,99.90
2022-08-05T17:08:54.185Z,99.90
2022-08-05T17:11:25.953Z,99.90
2022-08-05T17:14:00.279Z,99.90
2022-08-05T17:16:38.305Z,99.90
2022-08-05T17:19:07.533Z,99.90
2022-08-05T17:21:37.691Z,99.90
2022-08-05T17:24:30.101Z,99.90
2022-08-05T17:26:58.485Z,99.90
2022-08-05T17:29:33.501Z,99.90
2022-08-05T17:32:11.655Z,99.90
2022-08-05T17:34:48.131Z,99.90
2022-08-05T17:37:41.166Z,99.90
2022-08-05T17:40:10.133Z,99.90
2022-08-05T17:42:41.645Z,99.90
2022-08-05T17:45:20.121Z,99.90
2022-08-05T17:47:53.861Z,99.90
2022-08-05T17:50:28.533Z,99.90
2022-08-05T17:53:02.200Z,99.90
2022-08-05T17:55:37.479Z,99.90
2022-08-05T17:58:09.704Z,99.90
2022-08-05T18:00:40.905Z,99.90
2022-08-05T18:03:28.134Z,99.90
2022-08-05T18:06:04.653Z,99.90
2022-08-05T18:08:33.727Z,99.90
2022-08-05T18:11:03.172Z,99.90
2022-08-05T18:13:36.807Z,99.90
2022-08-05T18:16:13.327Z,99.90
2022-08-05T18:18:41.382Z,99.90
2022-08-05T18:21:19.824Z,99.90
2022-08-05T18:23:53.943Z,99.90
2022-08-05T18:26:29.291Z,99.90
2022-08-05T18:28:59.008Z,99.90
2022-08-05T18:31:35.189Z,99.90
2022-08-05T18:34:03.936Z,99.90
2022-08-05T18:36:35.454Z,99.90
2022-08-05T18:39:06.527Z,99.90
2022-08-05T18:41:55.016Z,99.90
2022-08-05T18:44:33.044Z,99.90
2022-08-05T18:47:03.382Z,99.90
2022-08-05T18:49:58.453Z,99.90
2022-08-05T18:52:36.005Z,99.90
2022-08-05T18:55:06.429Z,99.90
2022-08-05T18:57:43.670Z,99.90
2022-08-05T19:00:21.094Z,99.90
2022-08-05T19:02:56.146Z,99.90
2022-08-05T19:06:12.307Z,99.90
2022-08-05T19:08:15.277Z,99.90
2022-08-05T19:10:42.601Z,99.90
2022-08-05T19:13:12.255Z,99.90
2022-08-05T19:15:57.230Z,99.90
2022-08-05T19:18:28.781Z,99.90
2022-08-05T19:20:56.282Z,99.90
2022-08-05T19:24:05.166Z,99.90
2022-08-05T19:26:12.075Z,99.90
2022-08-05T19:28:43.582Z,99.90
2022-08-05T19:31:13.211Z,99.90
2022-08-05T19:33:48.631Z,99.90
2022-08-05T19:36:30.747Z,99.90
2022-08-05T19:39:01.557Z,99.90
2022-08-05T19:41:58.337Z,99.90
2022-08-05T19:44:18.900Z,99.90
2022-08-05T19:46:46.916Z,99.90
2022-08-05T19:49:16.997Z,99.90
2022-08-05T19:52:05.821Z,99.90
2022-08-05T19:54:34.320Z,99.90
2022-08-05T19:57:08.453Z,99.90
2022-08-05T19:59:56.536Z,99.90
2022-08-05T20:02:28.328Z,99.90
2022-08-05T20:04:58.488Z,99.90
2022-08-05T20:07:46.801Z,99.90
2022-08-05T20:10:16.069Z,99.90
2022-08-05T20:12:47.542Z,99.90
2022-08-05T20:15:48.640Z,99.90
2022-08-05T20:18:10.652Z,99.90
2022-08-05T20:20:55.277Z,99.90
2022-08-05T20:23:39.552Z,99.90
2022-08-05T20:26:16.070Z,99.90
2022-08-05T20:28:50.818Z,99.90
2022-08-05T20:31:21.413Z,99.90
2022-08-05T20:33:53.437Z,99.90
2022-08-05T20:36:22.587Z,99.90
2022-08-05T20:38:53.255Z,99.90
2022-08-05T20:41:26.601Z,99.90
2022-08-05T20:43:59.010Z,99.90
2022-08-05T20:46:27.850Z,99.90
2022-08-05T20:48:54.883Z,99.90
2022-08-05T20:51:22.021Z,99.90
2022-08-05T20:53:55.128Z,99.90
2022-08-05T20:56:29.941Z,99.90
2022-08-05T20:59:11.194Z,99.90
2022-08-05T21:01:44.907Z,99.90
2022-08-05T21:04:12.295Z,99.90
2022-08-05T21:06:45.367Z,99.90
2022-08-05T21:09:15.046Z,99.90
2022-08-05T21:12:06.988Z,99.90
2022-08-05T21:14:34.587Z,99.90
2022-08-05T21:17:05.939Z,99.90
2022-08-05T21:19:46.826Z,99.90
2022-08-05T21:22:21.814Z,99.90
2022-08-05T21:24:52.657Z,99.90
2022-08-05T21:27:27.359Z,99.90
2022-08-05T21:29:56.516Z,99.90
2022-08-05T21:32:27.014Z,99.90
2022-08-05T21:35:17.768Z,99.90
2022-08-05T21:37:47.211Z,99.90
2022-08-05T21:40:20.197Z,99.90
2022-08-05T21:42:47.922Z,99.90
2022-08-05T21:45:25.118Z,99.90
2022-08-05T21:48:06.413Z,99.90
2022-08-05T21:50:37.412Z,99.90
2022-08-05T21:53:16.323Z,99.90
2022-08-05T21:56:05.626Z,99.90
2022-08-05T21:58:41.990Z,99.90
2022-08-05T22:01:10.861Z,99.90
2022-08-05T22:03:52.852Z,99.90
2022-08-05T22:06:35.451Z,99.90
2022-08-05T22:09:13.858Z,99.90
2022-08-05T22:11:46.787Z,99.90
2022-08-05T22:14:33.428Z,99.90
2022-08-05T22:17:04.887Z,1.00
2022-08-05T22:20:00.131Z,1.00
2022-08-05T22:22:26.936Z,1.00
2022-08-05T22:25:18.015Z,1.00
2022-08-05T22:28:08.891Z,1.00
2022-08-05T22:30:55.612Z,1.00
2022-08-05T22:33:55.568Z,1.00
2022-08-05T22:36:14.709Z,1.00
2022-08-05T22:38:48.006Z,1.00
2022-08-05T22:42:04.250Z,1.00
2022-08-05T22:44:05.133Z,1.00
2022-08-05T22:46:32.814Z,1.00
2022-08-05T22:49:00.372Z,1.50
2022-08-05T22:52:03.100Z,20.30
2022-08-05T22:54:14.866Z,29.20
2022-08-05T22:56:42.663Z,64.80
2022-08-05T22:59:45.130Z,77.80
2022-08-05T23:02:05.478Z,99.90
2022-08-05T23:04:34.294Z,99.90
2022-08-05T23:07:01.869Z,99.90
2022-08-05T23:09:53.482Z,99.90
2022-08-05T23:12:17.993Z,99.90
2022-08-05T23:14:45.304Z,99.90
2022-08-05T23:17:34.480Z,99.90
2022-08-05T23:20:17.717Z,99.90
2022-08-05T23:22:48.583Z,1.00
2022-08-05T23:25:54.608Z,1.00
2022-08-05T23:28:07.043Z,1.00
2022-08-05T23:30:40.369Z,19.00
2022-08-05T23:33:16.029Z,99.90
2022-08-05T23:35:50.196Z,99.90
2022-08-05T23:38:18.245Z,99.90
2022-08-05T23:40:50.165Z,99.90
2022-08-05T23:43:25.537Z,12.40
2022-08-05T23:46:21.441Z,99.90
2022-08-05T23:48:59.988Z,1.00
2022-08-05T23:51:53.764Z,99.90
2022-08-05T23:54:30.171Z,57.00
2022-08-05T23:57:03.421Z,34.20
